Time;durP1;ratioP1;P1;durP2;ratioP2;P2;SDS_P1;SDS_P2;PMS_P1;PMS_P2;Temp;Humidity;BMP_temperature;BMP_pressure;BME280_temperature;BME280_humidity;BME280_pressure;Samples;Min_cycle;Max_cycle;Signal;HPM_P1;HPM_P2
2022/08/30 00:01:05;;;;;;;;;;;;;;;;;;21258132;27;20445;-53
2022/08/30 00:11:08;;;;;;;;;;;;;;;;;;21257860;27;19935;-55
2022/08/30 00:21:10;;;;;;;;;;;;;;;;;;21256709;27;20268;-54
2022/08/30 00:31:12;;;;;;;;;;;;;;;;;;21255883;27;19924;-55
2022/08/30 00:41:14;;;;;;;;;;;;;;;;;;21254870;27;19973;-57
2022/08/30 00:51:16;;;;;;;;;;;;;;;;;;21255352;27;20031;-54
2022/08/30 01:01:17;;;;;;;;;;;;;;;;;;21252774;27;19930;-54
2022/08/30 01:11:19;;;;;;;;;;;;;;;;;;21253390;27;20492;-55
2022/08/30 01:21:22;;;;;;;;;;;;;;;;;;21251436;27;19923;-53
2022/08/30 01:31:24;;;;;;;;;;;;;;;;;;21251798;27;19924;-54
2022/08/30 01:41:28;;;;;;;;;;;;;;;;;;21250032;27;19998;-53
2022/08/30 01:51:30;;;;;;;;;;;;;;;;;;21249390;27;20010;-52
2022/08/30 02:01:33;;;;;;;;;;;;;;;;;;21248336;27;20605;-54
2022/08/30 02:11:35;;;;;;;;;;;;;;;;;;21248696;27;19959;-53
2022/08/30 02:21:45;;;;;;;;;;;;;;;;;;21248392;27;19930;-54
2022/08/30 02:31:49;;;;;;;;;;;;;;;;;;21278936;27;19946;-56
2022/08/30 02:41:51;;;;;;;;;;;;;;;;;;21275866;27;19930;-55
2022/08/30 02:51:54;;;;;;;;;;;;;;;;;;21275210;27;19924;-55
2022/08/30 03:01:58;;;;;;;;;;;;;;;;;;21275453;27;19931;-54
2022/08/30 03:12:03;;;;;;;;;;;;;;;;;;21274309;27;19923;-55
2022/08/30 03:22:06;;;;;;;;;;;;;;;;;;21275680;27;20045;-53
2022/08/30 03:32:08;;;;;;;;;;;;;;;;;;21274146;27;19923;-55
2022/08/30 03:42:11;;;;;;;;;;;;;;;;;;21262249;27;19984;-54
2022/08/30 03:52:14;;;;;;;;;;;;;;;;;;21262447;27;20482;-54
2022/08/30 04:02:18;;;;;;;;;;;;;;;;;;21260301;27;20293;-53
2022/08/30 04:12:23;;;;;;;;;;;;;;;;;;21261365;27;19923;-53
2022/08/30 04:22:25;;;;;;;;;;;;;;;;;;21258683;27;19923;-53
2022/08/30 04:32:29;;;;;;;;;;;;;;;;;;21257465;27;19924;-61
2022/08/30 04:42:38;;;;;;;;;;;;;;;;;;21238584;27;19930;-54
2022/08/30 04:52:39;;;;;;;;;;;;;;;;;;21262635;27;20084;-54
2022/08/30 05:02:42;;;;;;;;;;;;;;;;;;21254748;27;20313;-58
2022/08/30 05:12:44;;;;;;;;;;;;;;;;;;21254380;27;20058;-61
2022/08/30 05:22:49;;;;;;;;;;;;;;;;;;21253935;27;20432;-55
2022/08/30 05:32:51;;;;;;;;;;;;;;;;;;21252397;27;19949;-60
2022/08/30 05:42:53;;;;;;;;;;;;;;;;;;21250657;27;20017;-62
2022/08/30 05:52:55;;;;;;;;;;;;;;;;;;21251061;27;20333;-61
2022/08/30 06:02:58;;;;;;;;;;;;;;;;;;21248592;27;20416;-63
2022/08/30 06:13:00;;;;;;;;;;;;;;;;;;21248460;27;19923;-55
2022/08/30 06:23:02;;;;;;;;;;;;;;;;;;21248164;27;19923;-62
2022/08/30 06:33:04;;;;;;;;;;;;;;;;;;21247341;27;19924;-62
2022/08/30 06:43:06;;;;;;;;;;;;;;;;;;21247780;28;19924;-63
2022/08/30 06:53:08;;;;;;;;;;;;;;;;;;21246795;27;20024;-55
2022/08/30 07:03:10;;;;;;;;;;;;;;;;;;21245285;27;19966;-55
2022/08/30 07:13:12;;;;;;;;;;;;;;;;;;21252594;27;20359;-55
2022/08/30 07:23:14;;;;;;;;;;;;;;;;;;21261467;27;19923;-54
2022/08/30 07:33:16;;;;;;;;;;;;;;;;;;21261119;27;20018;-53
2022/08/30 07:43:18;;;;;;;;;;;;;;;;;;21260855;27;20292;-54
2022/08/30 07:53:20;;;;;;;;;;;;;;;;;;21260547;27;19927;-55
2022/08/30 08:03:22;;;;;;;;;;;;;;;;;;21258216;27;19923;-54
2022/08/30 08:13:24;;;;;;;;;;;;;;;;;;21238746;27;19970;-54
2022/08/30 08:23:27;;;;;;;;;;;;;;;;;;21256094;27;19923;-54
2022/08/30 08:33:28;;;;;;;;;;;;;;;;;;21256459;27;19978;-55
2022/08/30 08:43:30;;;;;;;;;;;;;;;;;;21254620;27;19927;-56
2022/08/30 08:53:35;;;;;;;;;;;;;;;;;;21255629;27;19992;-54
2022/08/30 09:03:38;;;;;;;;;;;;;;;;;;21254753;27;19954;-56
2022/08/30 09:13:40;;;;;;;;;;;;;;;;;;21253417;27;19924;-54
2022/08/30 09:23:42;;;;;;;;;;;;;;;;;;21212716;27;20020;-54
2022/08/30 09:33:43;;;;;;;;;;;;;;;;;;21165869;28;20375;-54
2022/08/30 09:43:48;;;;;;;;;;;;;;;;;;21167403;28;20047;-55
2022/08/30 09:53:50;;;;;;;;;;;;;;;;;;21167392;28;19967;-55
2022/08/30 10:03:52;;;;;;;;;;;;;;;;;;21165541;28;19930;-54
2022/08/30 10:13:55;;;;;;;;;;;;;;;;;;21165311;28;19930;-54
2022/08/30 10:23:57;;;;;;;;;;;;;;;;;;21164421;28;19928;-58
2022/08/30 10:33:59;;;;;;;;;;;;;;;;;;21162963;28;20011;-55
2022/08/30 10:44:01;;;;;;;;;;;;;;;;;;21163489;28;20410;-54
2022/08/30 10:54:02;;;;;;;;;;;;;;;;;;21179749;28;20003;-53
2022/08/30 11:04:04;;;;;;;;;;;;;;;;;;21177874;28;19928;-54
2022/08/30 11:14:06;;;;;;;;;;;;;;;;;;21176949;28;20435;-53
2022/08/30 11:24:10;;;;;;;;;;;;;;;;;;21175906;28;20066;-51
2022/08/30 11:34:12;;;;;;;;;;;;;;;;;;21176181;28;19923;-53
2022/08/30 11:44:14;;;;;;;;;;;;;;;;;;21177336;28;19976;-55
2022/08/30 11:54:16;;;;;;;;;;;;;;;;;;21176163;28;19924;-54
2022/08/30 12:04:21;;;;;;;;;;;;;;;;;;21173376;28;19924;-61
2022/08/30 12:14:23;;;;;;;;;;;;;;;;;;21173051;28;20418;-60
2022/08/30 12:24:24;;;;;;;;;;;;;;;;;;21172917;28;19969;-61
2022/08/30 12:34:26;;;;;;;;;;;;;;;;;;21173678;28;20493;-59
2022/08/30 12:44:28;;;;;;;;;;;;;;;;;;21172844;28;19931;-62
2022/08/30 12:54:30;;;;;;;;;;;;;;;;;;21170980;28;19993;-59
2022/08/30 13:04:32;;;;;;;;;;;;;;;;;;21169400;28;20359;-60
2022/08/30 13:14:34;;;;;;;;;;;;;;;;;;21167481;28;19969;-59
2022/08/30 13:24:36;;;;;;;;;;;;;;;;;;21168648;28;20336;-54
2022/08/30 13:34:39;;;;;;;;;;;;;;;;;;21167388;28;20374;-57
2022/08/30 13:44:41;;;;;;;;;;;;;;;;;;21147440;28;19941;-53
2022/08/30 13:54:46;;;;;;;;;;;;;;;;;;21165300;28;19931;-57
2022/08/30 14:04:48;;;;;;;;;;;;;;;;;;21164419;28;20401;-54
2022/08/30 14:14:50;;;;;;;;;;;;;;;;;;21166051;28;19924;-54
2022/08/30 14:24:53;;;;;;;;;;;;;;;;;;21162126;28;20065;-54
2022/08/30 14:34:55;;;;;;;;;;;;;;;;;;21163551;28;19924;-59
2022/08/30 14:44:57;;;;;;;;;;;;;;;;;;21161983;28;20275;-56
2022/08/30 14:54:58;;;;;;;;;;;;;;;;;;21160538;28;19924;-55
2022/08/30 15:05:00;;;;;;;;;;;;;;;;;;21160430;28;19949;-55
2022/08/30 15:15:02;;;;;;;;;;;;;;;;;;21161363;28;19978;-56
2022/08/30 15:25:04;;;;;;;;;;;;;;;;;;21160707;28;20026;-54
2022/08/30 15:35:06;;;;;;;;;;;;;;;;;;21169459;28;19973;-54
2022/08/30 15:45:08;;;;;;;;;;;;;;;;;;21179591;28;20010;-55
2022/08/30 15:55:10;;;;;;;;;;;;;;;;;;21179728;28;19928;-62
2022/08/30 16:05:12;;;;;;;;;;;;;;;;;;21181702;28;19977;-62
2022/08/30 16:15:14;;;;;;;;;;;;;;;;;;21176606;28;19924;-58
2022/08/30 16:25:16;;;;;;;;;;;;;;;;;;21172774;28;19950;-56
2022/08/30 16:35:18;;;;;;;;;;;;;;;;;;21170280;28;20014;-58
2022/08/30 16:45:20;;;;;;;;;;;;;;;;;;21169000;28;19966;-61
2022/08/30 16:55:22;;;;;;;;;;;;;;;;;;21168677;28;20393;-56
2022/08/30 17:05:23;;;;;;;;;;;;;;;;;;21167711;28;19931;-61
2022/08/30 17:15:25;;;;;;;;;;;;;;;;;;21167845;28;20334;-59
2022/08/30 17:25:28;;;;;;;;;;;;;;;;;;21167899;28;19931;-53
2022/08/30 17:35:30;;;;;;;;;;;;;;;;;;21164991;28;20061;-57
2022/08/30 17:45:32;;;;;;;;;;;;;;;;;;21165278;28;20295;-55
2022/08/30 17:55:34;;;;;;;;;;;;;;;;;;21164339;28;20350;-56
2022/08/30 18:05:35;;;;;;;;;;;;;;;;;;21166389;28;19923;-59
2022/08/30 18:15:37;;;;;;;;;;;;;;;;;;21164845;28;19924;-55
2022/08/30 18:25:39;;;;;;;;;;;;;;;;;;21166123;28;19923;-55
2022/08/30 18:35:42;;;;;;;;;;;;;;;;;;21177527;28;20371;-54
2022/08/30 18:45:44;;;;;;;;;;;;;;;;;;21165345;28;19924;-53
2022/08/30 18:55:47;;;;;;;;;;;;;;;;;;21164007;28;19924;-55
2022/08/30 19:05:48;;;;;;;;;;;;;;;;;;21162564;28;19931;-59
2022/08/30 19:15:51;;;;;;;;;;;;;;;;;;21176920;28;19923;-56
2022/08/30 19:25:53;;;;;;;;;;;;;;;;;;21176346;28;20287;-56
2022/08/30 19:35:55;;;;;;;;;;;;;;;;;;21176260;28;20429;-57
2022/08/30 19:45:57;;;;;;;;;;;;;;;;;;21156724;28;19927;-59
2022/08/30 19:55:59;;;;;;;;;;;;;;;;;;21174357;28;19924;-56
2022/08/30 20:06:01;;;;;;;;;;;;;;;;;;21173272;28;20427;-54
2022/08/30 20:16:03;;;;;;;;;;;;;;;;;;21174108;28;20414;-55
2022/08/30 20:26:05;;;;;;;;;;;;;;;;;;21170744;28;20007;-57
2022/08/30 20:36:08;;;;;;;;;;;;;;;;;;21171829;28;19924;-60
2022/08/30 20:46:10;;;;;;;;;;;;;;;;;;21171275;28;19990;-54
2022/08/30 20:56:12;;;;;;;;;;;;;;;;;;21169743;28;20372;-55
2022/08/30 21:06:16;;;;;;;;;;;;;;;;;;21169768;28;19923;-61
2022/08/30 21:16:18;;;;;;;;;;;;;;;;;;21169262;28;19931;-56
2022/08/30 21:26:19;;;;;;;;;;;;;;;;;;21171364;28;20248;-54
2022/08/30 21:46:42;;;;;;;;;;;;;;;;;;21167551;28;20365;-55
2022/08/30 21:56:44;;;;;;;;;;;;;;;;;;21166662;28;19924;-55
2022/08/30 22:06:46;;;;;;;;;;;;;;;;;;21164825;28;20090;-56
2022/08/30 22:16:49;;;;;;;;;;;;;;;;;;21164811;28;20395;-60
2022/08/30 22:26:51;;;;;;;;;;;;;;;;;;21164404;28;19927;-60
2022/08/30 22:36:53;;;;;;;;;;;;;;;;;;21163375;28;19924;-54
2022/08/30 22:46:56;;;;;;;;;;;;;;;;;;21176313;28;19923;-54
2022/08/30 22:56:58;;;;;;;;;;;;;;;;;;21180001;28;20371;-57
2022/08/30 23:07:00;;;;;;;;;;;;;;;;;;21178535;28;20368;-54
2022/08/30 23:17:02;;;;;;;;;;;;;;;;;;21178656;28;19928;-60
